createdAt,value
2019-05-25T00:01:55.421Z,23.4
2019-05-25T00:04:27.710Z,23.0
2019-05-25T00:06:59.991Z,25.7
2019-05-25T00:09:32.362Z,25.0
2019-05-25T00:12:04.662Z,26.8
2019-05-25T00:14:36.876Z,27.5
2019-05-25T00:17:09.528Z,26.6
2019-05-25T00:19:41.601Z,25.6
2019-05-25T00:22:14.095Z,25.3
2019-05-25T00:24:46.279Z,24.0
2019-05-25T00:27:18.685Z,23.7
2019-05-25T00:29:50.854Z,24.2
2019-05-25T00:32:23.153Z,24.0
2019-05-25T00:34:55.580Z,23.3
2019-05-25T00:37:27.883Z,25.1
2019-05-25T00:40:00.076Z,23.4
2019-05-25T00:42:32.521Z,22.8
2019-05-25T00:45:04.836Z,24.3
2019-05-25T00:47:37.243Z,23.1
2019-05-25T00:50:09.487Z,25.5
2019-05-25T00:52:41.981Z,23.8
2019-05-25T00:55:14.224Z,25.4
2019-05-25T00:57:46.555Z,24.3
2019-05-25T01:00:18.703Z,24.1
2019-05-25T01:02:51.345Z,24.0
2019-05-25T01:05:23.774Z,24.7
2019-05-25T01:07:56.487Z,24.5
2019-05-25T01:10:28.678Z,25.4
2019-05-25T01:13:01.083Z,29.7
2019-05-25T01:15:33.347Z,30.4
2019-05-25T01:18:05.671Z,28.8
2019-05-25T01:20:37.867Z,28.3
2019-05-25T01:23:10.362Z,26.9
2019-05-25T01:25:42.545Z,27.9
2019-05-25T01:28:14.789Z,27.8
2019-05-25T01:31:26.266Z,25.8
2019-05-25T01:34:00.032Z,26.6
2019-05-25T01:36:33.716Z,27.1
2019-05-25T01:39:07.544Z,26.1
2019-05-25T01:41:41.287Z,26.0
2019-05-25T01:44:15.024Z,27.1
2019-05-25T01:46:48.819Z,26.4
2019-05-25T01:49:22.539Z,25.3
2019-05-25T01:51:56.261Z,25.3
2019-05-25T01:54:30.523Z,24.8
2019-05-25T01:57:02.716Z,25.2
2019-05-25T01:59:35.359Z,26.4
2019-05-25T02:02:07.590Z,25.6
2019-05-25T02:04:39.897Z,25.2
2019-05-25T02:07:12.119Z,23.8
2019-05-25T02:09:44.410Z,23.6
2019-05-25T02:12:16.617Z,24.8
2019-05-25T02:14:49.051Z,23.8
2019-05-25T02:17:21.253Z,24.3
2019-05-25T02:19:53.468Z,23.4
2019-05-25T02:22:25.766Z,23.6
2019-05-25T02:24:58.512Z,22.5
2019-05-25T02:27:38.845Z,22.4
2019-05-25T02:30:10.679Z,21.4
2019-05-25T02:32:42.349Z,21.2
2019-05-25T02:35:13.971Z,18.8
2019-05-25T02:37:45.550Z,18.0
2019-05-25T02:40:17.609Z,18.2
2019-05-25T02:42:49.182Z,17.7
2019-05-25T02:45:21.000Z,18.6
2019-05-25T02:47:52.574Z,18.3
2019-05-25T02:50:24.289Z,19.1
2019-05-25T02:52:55.836Z,18.8
2019-05-25T02:55:35.361Z,19.8
2019-05-25T02:58:07.012Z,18.9
2019-05-25T03:00:38.676Z,23.6
2019-05-25T03:03:10.292Z,23.3
2019-05-25T03:05:42.072Z,23.1
2019-05-25T03:08:13.880Z,20.4
2019-05-25T03:10:46.010Z,19.0
2019-05-25T03:13:17.535Z,20.1
2019-05-25T03:15:49.181Z,18.3
2019-05-25T03:18:20.739Z,20.1
2019-05-25T03:20:52.410Z,18.5
2019-05-25T03:23:23.926Z,18.7
2019-05-25T03:25:56.074Z,19.1
2019-05-25T03:28:27.645Z,18.1
2019-05-25T03:31:25.552Z,17.8
2019-05-25T03:33:59.252Z,17.6
2019-05-25T03:36:33.270Z,23.7
2019-05-25T03:39:07.038Z,24.9
2019-05-25T03:41:40.893Z,29.3
2019-05-25T03:44:14.588Z,27.2
2019-05-25T03:46:48.541Z,32.8
2019-05-25T03:49:22.346Z,30.8
2019-05-25T03:51:56.526Z,29.7
2019-05-25T03:54:30.243Z,30.1
2019-05-25T03:57:04.178Z,27.2
2019-05-25T03:59:38.005Z,25.8
2019-05-25T04:02:11.967Z,28.1
2019-05-25T04:04:45.576Z,30.7
2019-05-25T04:07:19.395Z,30.3
2019-05-25T04:09:53.132Z,34.1
2019-05-25T04:12:27.382Z,34.3
2019-05-25T04:14:59.605Z,32.6
2019-05-25T04:17:32.082Z,35.5
2019-05-25T04:20:04.508Z,33.6
2019-05-25T04:22:36.881Z,32.5
2019-05-25T04:25:09.049Z,30.3
2019-05-25T04:27:41.865Z,28.4
2019-05-25T04:30:13.999Z,29.6
2019-05-25T04:32:46.422Z,26.6
2019-05-25T04:35:18.564Z,27.1
2019-05-25T04:37:51.067Z,23.8
2019-05-25T04:40:23.596Z,26.8
2019-05-25T04:42:56.452Z,26.6
2019-05-25T04:45:28.769Z,25.6
2019-05-25T04:48:01.165Z,24.9
2019-05-25T04:50:33.312Z,24.1
2019-05-25T04:53:05.618Z,25.3
2019-05-25T04:55:37.858Z,26.0
2019-05-25T04:58:10.380Z,25.2
2019-05-25T05:00:42.616Z,27.6
2019-05-25T05:03:15.021Z,27.3
2019-05-25T05:05:47.212Z,25.1
2019-05-25T05:08:19.423Z,26.1
2019-05-25T05:10:51.776Z,27.2
2019-05-25T05:13:24.564Z,27.0
2019-05-25T05:15:56.831Z,26.2
2019-05-25T05:18:29.280Z,25.8
2019-05-25T05:21:01.572Z,25.7
2019-05-25T05:23:34.263Z,28.0
2019-05-25T05:26:06.645Z,27.0
2019-05-25T05:28:38.887Z,27.5
2019-05-25T05:31:26.157Z,29.0
2019-05-25T05:33:59.935Z,30.3
2019-05-25T05:36:33.688Z,28.9
2019-05-25T05:39:07.667Z,30.4
2019-05-25T05:41:41.528Z,30.4
2019-05-25T05:44:15.603Z,29.4
2019-05-25T05:46:49.278Z,30.4
2019-05-25T05:49:23.338Z,29.1
2019-05-25T05:51:57.036Z,27.1
2019-05-25T05:54:32.233Z,20.5
2019-05-25T05:57:12.992Z,22.4
2019-05-25T05:59:47.641Z,20.4
2019-05-25T06:02:22.076Z,22.1
2019-05-25T06:04:56.803Z,22.1
2019-05-25T06:07:30.780Z,23.6
2019-05-25T06:10:10.518Z,22.5
2019-05-25T06:12:45.496Z,21.4
2019-05-25T06:15:20.656Z,19.1
2019-05-25T06:17:54.065Z,18.6
2019-05-25T06:20:32.040Z,19.2
2019-05-25T06:23:12.127Z,20.4
2019-05-25T06:25:45.975Z,21.4
2019-05-25T06:28:22.668Z,21.2
2019-05-25T06:30:56.837Z,22.7
2019-05-25T06:33:34.166Z,23.8
2019-05-25T06:36:06.425Z,23.7
2019-05-25T06:38:39.695Z,24.8
2019-05-25T06:41:19.037Z,23.9
2019-05-25T06:43:52.342Z,20.3
2019-05-25T06:46:26.895Z,14.8
2019-05-25T06:48:59.295Z,15.4
2019-05-25T06:51:32.806Z,15.4
2019-05-25T06:54:05.082Z,12.5
2019-05-25T06:56:37.586Z,15.6
2019-05-25T06:59:09.871Z,16.1
2019-05-25T07:01:42.376Z,18.1
2019-05-25T07:04:14.598Z,19.2
2019-05-25T07:06:47.622Z,19.6
2019-05-25T07:09:19.934Z,22.1
2019-05-25T07:11:52.459Z,20.4
2019-05-25T07:14:24.807Z,20.1
2019-05-25T07:16:57.585Z,21.7
2019-05-25T07:19:30.058Z,18.7
2019-05-25T07:22:02.618Z,17.0
2019-05-25T07:24:34.841Z,16.3
2019-05-25T07:27:07.245Z,15.2
2019-05-25T07:29:39.578Z,13.4
2019-05-25T07:31:25.513Z,12.7
2019-05-25T07:33:59.705Z,9.4
2019-05-25T07:36:31.800Z,9.4
2019-05-25T07:39:04.091Z,7.3
2019-05-25T07:41:36.315Z,6.8
2019-05-25T07:44:08.803Z,7.0
2019-05-25T07:46:41.057Z,6.4
2019-05-25T07:49:13.477Z,7.0
2019-05-25T07:51:45.563Z,6.4
2019-05-25T07:54:17.909Z,7.1
2019-05-25T07:56:50.014Z,7.0
2019-05-25T07:59:22.453Z,7.0
2019-05-25T08:01:54.962Z,7.4
2019-05-25T08:04:28.002Z,6.3
2019-05-25T08:07:00.179Z,6.2
2019-05-25T08:09:32.627Z,6.0
2019-05-25T08:12:05.409Z,6.2
2019-05-25T08:14:37.686Z,6.2
2019-05-25T08:17:09.838Z,6.3
2019-05-25T08:19:42.314Z,5.8
2019-05-25T08:22:14.413Z,6.2
2019-05-25T08:24:46.794Z,5.7
2019-05-25T08:27:19.103Z,5.7
2019-05-25T08:29:51.511Z,6.7
2019-05-25T08:32:23.955Z,7.5
2019-05-25T08:34:56.779Z,7.9
2019-05-25T08:37:29.007Z,7.5
2019-05-25T08:40:01.349Z,7.7
2019-05-25T08:42:33.644Z,8.3
2019-05-25T08:45:05.962Z,7.2
2019-05-25T08:47:38.236Z,7.4
2019-05-25T08:50:10.550Z,7.3
2019-05-25T08:52:42.836Z,7.1
2019-05-25T08:55:15.304Z,6.3
2019-05-25T08:57:47.500Z,5.7
2019-05-25T09:00:19.907Z,5.7
2019-05-25T09:02:52.098Z,5.3
2019-05-25T09:05:24.591Z,5.3
2019-05-25T09:07:56.876Z,4.9
2019-05-25T09:10:29.233Z,5.3
2019-05-25T09:13:01.388Z,5.0
2019-05-25T09:15:33.900Z,4.9
2019-05-25T09:18:06.147Z,5.0
2019-05-25T09:20:38.798Z,4.5
2019-05-25T09:23:11.039Z,4.7
2019-05-25T09:25:43.720Z,4.2
2019-05-25T09:28:16.078Z,3.8
2019-05-25T09:31:26.135Z,3.9
2019-05-25T09:33:59.855Z,4.2
2019-05-25T09:36:33.685Z,4.4
2019-05-25T09:39:07.724Z,4.5
2019-05-25T09:41:41.423Z,4.2
2019-05-25T09:44:15.360Z,5.0
2019-05-25T09:46:49.235Z,4.7
2019-05-25T09:49:23.051Z,4.2
2019-05-25T09:51:57.361Z,4.8
2019-05-25T09:54:31.537Z,4.2
2019-05-25T09:57:04.005Z,3.9
2019-05-25T09:59:36.323Z,3.6
2019-05-25T10:02:09.010Z,3.7
2019-05-25T10:04:41.250Z,4.4
2019-05-25T10:07:13.641Z,4.7
2019-05-25T10:09:45.823Z,4.7
2019-05-25T10:12:18.222Z,5.0
2019-05-25T10:14:50.429Z,4.9
2019-05-25T10:17:22.729Z,5.0
2019-05-25T10:19:55.026Z,4.7
2019-05-25T10:22:27.507Z,6.2
2019-05-25T10:24:59.737Z,5.8
2019-05-25T10:27:34.488Z,6.1
2019-05-25T10:30:06.744Z,5.4
2019-05-25T10:32:39.113Z,5.8
2019-05-25T10:35:11.525Z,4.2
2019-05-25T10:37:44.000Z,4.8
2019-05-25T10:40:16.315Z,4.5
2019-05-25T10:42:48.831Z,4.9
2019-05-25T10:45:21.405Z,4.2
2019-05-25T10:47:53.944Z,4.1
2019-05-25T10:50:26.266Z,4.7
2019-05-25T10:52:59.123Z,4.3
2019-05-25T10:55:31.322Z,5.8
2019-05-25T10:58:03.754Z,4.9
2019-05-25T11:00:36.173Z,4.3
2019-05-25T11:03:08.847Z,3.4
2019-05-25T11:05:41.482Z,3.0
2019-05-25T11:08:14.443Z,3.2
2019-05-25T11:10:47.076Z,2.9
2019-05-25T11:13:19.497Z,2.6
2019-05-25T11:15:51.744Z,2.3
2019-05-25T11:18:24.179Z,2.2
2019-05-25T11:20:56.517Z,2.6
2019-05-25T11:23:29.551Z,2.8
2019-05-25T11:26:01.731Z,3.0
2019-05-25T11:28:34.243Z,3.6
2019-05-25T11:31:26.452Z,3.1
2019-05-25T11:34:00.639Z,3.1
2019-05-25T11:36:33.052Z,3.0
2019-05-25T11:39:06.365Z,3.2
2019-05-25T11:41:39.559Z,2.1
2019-05-25T11:44:18.212Z,2.5
2019-05-25T11:46:50.453Z,2.2
2019-05-25T11:49:23.353Z,2.7
2019-05-25T11:51:55.690Z,2.5
2019-05-25T11:54:28.194Z,2.0
2019-05-25T11:57:00.358Z,1.9
2019-05-25T11:59:32.872Z,2.2
2019-05-25T12:02:05.243Z,2.7
2019-05-25T12:04:37.436Z,2.2
2019-05-25T12:07:09.945Z,2.3
2019-05-25T12:09:42.203Z,2.3
2019-05-25T12:12:14.440Z,2.3
2019-05-25T12:14:47.036Z,2.4
2019-05-25T12:17:19.133Z,2.7
2019-05-25T12:19:51.800Z,2.6
2019-05-25T12:22:24.641Z,2.7
2019-05-25T12:24:57.436Z,2.5
2019-05-25T12:27:29.735Z,3.3
2019-05-25T12:30:02.199Z,3.0
2019-05-25T12:32:34.633Z,3.1
2019-05-25T12:35:07.183Z,3.1
2019-05-25T12:37:39.514Z,3.6
2019-05-25T12:40:12.086Z,3.2
2019-05-25T12:42:46.212Z,3.1
2019-05-25T12:45:18.073Z,3.2
2019-05-25T12:47:49.666Z,3.3
2019-05-25T12:50:21.457Z,2.7
2019-05-25T12:52:53.038Z,2.9
2019-05-25T12:55:25.610Z,3.1
2019-05-25T12:57:57.341Z,2.5
2019-05-25T13:00:29.130Z,3.6
2019-05-25T13:03:00.800Z,2.9
2019-05-25T13:05:34.943Z,5.0
2019-05-25T13:08:06.621Z,5.8
2019-05-25T13:10:38.296Z,6.7
2019-05-25T13:13:09.902Z,6.0
2019-05-25T13:15:41.737Z,6.5
2019-05-25T13:18:13.394Z,6.6
2019-05-25T13:20:45.337Z,6.8
2019-05-25T13:23:16.960Z,6.2
2019-05-25T13:25:49.008Z,6.2
2019-05-25T13:28:20.679Z,6.0
2019-05-25T13:31:25.806Z,7.2
2019-05-25T13:33:59.538Z,6.1
2019-05-25T13:36:33.610Z,5.7
2019-05-25T13:39:07.466Z,4.8
2019-05-25T13:41:41.817Z,4.3
2019-05-25T13:44:15.582Z,4.2
2019-05-25T13:46:49.547Z,3.8
2019-05-25T13:49:23.391Z,4.1
2019-05-25T13:51:57.369Z,4.1
2019-05-25T13:54:31.183Z,3.8
2019-05-25T13:57:05.108Z,4.3
2019-05-25T13:59:38.830Z,3.5
2019-05-25T14:02:13.087Z,3.8
2019-05-25T14:04:47.114Z,3.5
2019-05-25T14:07:21.157Z,3.5
2019-05-25T14:09:54.946Z,3.3
2019-05-25T14:12:29.319Z,3.2
2019-05-25T14:15:03.454Z,3.2
2019-05-25T14:17:36.066Z,2.9
2019-05-25T14:20:08.371Z,3.4
2019-05-25T14:22:40.727Z,3.3
2019-05-25T14:25:13.507Z,3.2
2019-05-25T14:27:46.267Z,3.1
2019-05-25T14:30:18.451Z,3.1
2019-05-25T14:32:50.981Z,3.1
2019-05-25T14:35:23.473Z,2.7
2019-05-25T14:37:56.204Z,2.9
2019-05-25T14:40:28.334Z,2.4
2019-05-25T14:43:00.693Z,2.7
2019-05-25T14:45:32.942Z,2.7
2019-05-25T14:48:05.299Z,2.2
2019-05-25T14:50:37.610Z,2.2
2019-05-25T14:53:10.067Z,2.3
2019-05-25T14:55:42.245Z,2.4
2019-05-25T14:58:15.045Z,2.3
2019-05-25T15:00:47.227Z,2.5
2019-05-25T15:03:19.138Z,3.1
2019-05-25T15:05:50.823Z,4.0
2019-05-25T15:08:22.585Z,3.9
2019-05-25T15:10:54.231Z,4.0
2019-05-25T15:13:26.046Z,4.2
2019-05-25T15:15:57.976Z,3.6
2019-05-25T15:18:29.751Z,3.3
2019-05-25T15:21:01.391Z,3.9
2019-05-25T15:23:33.026Z,3.9
2019-05-25T15:26:04.646Z,3.8
2019-05-25T15:28:36.299Z,3.3
2019-05-25T15:31:26.056Z,3.6
2019-05-25T15:34:00.255Z,3.5
2019-05-25T15:36:34.144Z,3.5
2019-05-25T15:39:07.943Z,3.0
2019-05-25T15:41:41.695Z,4.0
2019-05-25T15:44:15.520Z,4.3
2019-05-25T15:46:49.355Z,4.3
2019-05-25T15:49:33.891Z,4.4
2019-05-25T15:52:05.859Z,4.3
2019-05-25T15:54:39.642Z,4.6
2019-05-25T15:57:13.620Z,5.3
2019-05-25T15:59:48.037Z,4.6
2019-05-25T16:02:37.167Z,5.2
2019-05-25T16:05:04.675Z,5.1
2019-05-25T16:07:38.440Z,5.0
2019-05-25T16:10:12.283Z,4.8
2019-05-25T16:12:46.059Z,4.6
2019-05-25T16:15:20.285Z,5.8
2019-05-25T16:17:54.115Z,7.9
2019-05-25T16:20:27.917Z,5.3
2019-05-25T16:23:01.649Z,4.6
2019-05-25T16:25:35.596Z,4.4
2019-05-25T16:28:10.127Z,5.3
2019-05-25T16:30:44.025Z,5.2
2019-05-25T16:33:18.046Z,5.4
2019-05-25T16:35:52.454Z,4.9
2019-05-25T16:38:26.190Z,5.2
2019-05-25T16:41:00.496Z,4.7
2019-05-25T16:43:34.429Z,4.4
2019-05-25T16:46:08.568Z,4.3
2019-05-25T16:48:42.578Z,3.9
2019-05-25T16:51:16.919Z,3.3
2019-05-25T16:53:50.762Z,2.4
2019-05-25T16:56:24.887Z,2.1
2019-05-25T16:58:58.757Z,2.2
2019-05-25T17:01:48.912Z,2.3
2019-05-25T17:04:15.355Z,2.3
2019-05-25T17:06:49.790Z,2.5
2019-05-25T17:09:23.871Z,2.7
2019-05-25T17:11:56.690Z,2.7
2019-05-25T17:14:29.289Z,3.0
2019-05-25T17:17:01.900Z,4.5
2019-05-25T17:19:34.444Z,9.3
2019-05-25T17:22:07.137Z,11.0
2019-05-25T17:24:39.742Z,11.7
2019-05-25T17:27:12.581Z,11.3
2019-05-25T17:29:45.055Z,10.8
2019-05-25T17:31:25.963Z,11.3
2019-05-25T17:34:00.050Z,12.3
2019-05-25T17:36:34.017Z,15.1
2019-05-25T17:39:07.982Z,15.5
2019-05-25T17:41:41.899Z,15.8
2019-05-25T17:44:15.991Z,15.4
2019-05-25T17:46:50.054Z,16.1
2019-05-25T17:49:24.058Z,13.4
2019-05-25T17:51:57.898Z,13.4
2019-05-25T17:54:31.825Z,13.4
2019-05-25T17:57:05.693Z,11.4
2019-05-25T17:59:39.768Z,11.2
2019-05-25T18:02:13.539Z,11.6
2019-05-25T18:04:47.394Z,11.1
2019-05-25T18:07:21.164Z,11.3
2019-05-25T18:09:55.220Z,9.8
2019-05-25T18:12:29.049Z,9.8
2019-05-25T18:15:03.173Z,9.7
2019-05-25T18:17:36.942Z,8.7
2019-05-25T18:20:11.399Z,8.0
2019-05-25T18:22:45.096Z,7.3
2019-05-25T18:25:19.100Z,6.9
2019-05-25T18:27:52.835Z,7.1
2019-05-25T18:30:27.026Z,6.4
2019-05-25T18:32:59.431Z,5.7
2019-05-25T18:35:31.858Z,5.6
2019-05-25T18:38:04.023Z,4.9
2019-05-25T18:40:36.304Z,5.3
2019-05-25T18:43:08.608Z,5.3
2019-05-25T18:45:40.974Z,5.7
2019-05-25T18:48:13.501Z,6.6
2019-05-25T18:50:45.964Z,6.4
2019-05-25T18:53:18.152Z,7.5
2019-05-25T18:55:50.086Z,18.6
2019-05-25T18:58:21.709Z,12.0
2019-05-25T19:00:53.814Z,8.8
2019-05-25T19:03:25.453Z,8.3
2019-05-25T19:05:57.503Z,9.8
2019-05-25T19:08:29.131Z,9.0
2019-05-25T19:11:01.580Z,7.9
2019-05-25T19:13:33.261Z,7.3
2019-05-25T19:16:05.078Z,9.2
2019-05-25T19:18:36.650Z,6.6
2019-05-25T19:21:08.459Z,6.2
2019-05-25T19:23:40.037Z,6.4
2019-05-25T19:26:11.751Z,6.7
2019-05-25T19:28:43.416Z,6.6
2019-05-25T19:31:26.139Z,6.6
2019-05-25T19:33:59.855Z,6.5
2019-05-25T19:36:34.220Z,7.0
2019-05-25T19:39:08.059Z,6.8
2019-05-25T19:41:42.064Z,6.9
2019-05-25T19:44:15.818Z,6.8
2019-05-25T19:46:49.712Z,7.3
2019-05-25T19:49:23.556Z,7.4
2019-05-25T19:51:57.868Z,6.8
2019-05-25T19:54:31.656Z,7.3
2019-05-25T19:57:05.452Z,7.5
2019-05-25T19:59:38.074Z,7.3
2019-05-25T20:02:10.559Z,6.8
2019-05-25T20:04:43.490Z,6.9
2019-05-25T20:07:16.932Z,7.0
2019-05-25T20:09:49.717Z,6.9
2019-05-25T20:12:22.350Z,8.2
2019-05-25T20:14:54.583Z,8.4
2019-05-25T20:17:26.974Z,8.5
2019-05-25T20:19:59.131Z,8.5
2019-05-25T20:22:31.921Z,9.2
2019-05-25T20:25:04.107Z,9.2
2019-05-25T20:27:36.513Z,9.3
2019-05-25T20:30:08.831Z,8.9
2019-05-25T20:32:41.217Z,9.2
2019-05-25T20:35:13.472Z,10.1
2019-05-25T20:37:46.236Z,9.9
2019-05-25T20:40:18.399Z,10.1
2019-05-25T20:42:50.940Z,8.6
2019-05-25T20:45:23.194Z,7.4
2019-05-25T20:47:55.657Z,7.1
2019-05-25T20:50:27.884Z,8.1
2019-05-25T20:53:00.364Z,7.0
2019-05-25T20:55:32.519Z,7.5
2019-05-25T20:58:05.010Z,7.1
2019-05-25T21:00:37.226Z,7.8
2019-05-25T21:03:09.606Z,8.2
2019-05-25T21:05:50.946Z,7.8
2019-05-25T21:08:23.081Z,8.4
2019-05-25T21:10:55.241Z,8.1
2019-05-25T21:13:30.518Z,9.5
2019-05-25T21:16:04.197Z,7.7
2019-05-25T21:18:37.306Z,8.5
2019-05-25T21:21:10.414Z,9.0
2019-05-25T21:23:43.592Z,7.7
2019-05-25T21:26:15.753Z,8.0
2019-05-25T21:28:47.926Z,8.2
2019-05-25T21:31:26.311Z,6.5
2019-05-25T21:34:00.279Z,6.5
2019-05-25T21:36:33.894Z,8.0
2019-05-25T21:39:07.889Z,7.0
2019-05-25T21:41:41.617Z,7.1
2019-05-25T21:44:15.509Z,7.6
2019-05-25T21:46:49.212Z,6.9
2019-05-25T21:49:23.139Z,7.0
2019-05-25T21:51:56.808Z,7.3
2019-05-25T21:54:30.839Z,7.3
2019-05-25T21:57:04.566Z,7.1
2019-05-25T21:59:38.618Z,7.1
2019-05-25T22:02:12.282Z,6.8
2019-05-25T22:04:46.296Z,6.5
2019-05-25T22:07:20.120Z,7.7
2019-05-25T22:09:54.332Z,6.9
2019-05-25T22:12:26.425Z,6.9
2019-05-25T22:14:58.130Z,6.9
2019-05-25T22:17:30.160Z,6.6
2019-05-25T22:20:02.000Z,6.9
2019-05-25T22:22:33.611Z,6.8
2019-05-25T22:25:05.680Z,6.5
2019-05-25T22:27:37.253Z,7.5
2019-05-25T22:30:09.093Z,7.1
2019-05-25T22:32:40.654Z,7.2
2019-05-25T22:35:12.523Z,6.7
2019-05-25T22:37:44.140Z,6.6
2019-05-25T22:40:16.005Z,6.3
2019-05-25T22:42:47.643Z,6.2
2019-05-25T22:45:19.386Z,6.1
2019-05-25T22:47:50.992Z,6.4
2019-05-25T22:50:22.834Z,6.8
2019-05-25T22:52:54.456Z,6.8
2019-05-25T22:55:26.397Z,7.0
2019-05-25T22:57:58.070Z,7.6
2019-05-25T23:00:29.819Z,6.9
2019-05-25T23:03:01.397Z,6.5
2019-05-25T23:05:33.051Z,7.4
2019-05-25T23:08:04.810Z,6.1
2019-05-25T23:10:36.596Z,7.2
2019-05-25T23:13:08.106Z,7.9
2019-05-25T23:15:39.832Z,7.9
2019-05-25T23:18:11.376Z,8.2
2019-05-25T23:20:43.181Z,10.1
2019-05-25T23:23:14.819Z,9.2
2019-05-25T23:25:46.923Z,10.6
2019-05-25T23:28:18.533Z,11.0
2019-05-25T23:31:25.909Z,11.4
2019-05-25T23:33:58.159Z,10.3
2019-05-25T23:36:30.187Z,12.3
2019-05-25T23:39:01.940Z,11.0
2019-05-25T23:41:33.512Z,11.5
2019-05-25T23:44:05.098Z,12.0
2019-05-25T23:46:37.014Z,10.6
2019-05-25T23:49:08.609Z,11.9
2019-05-25T23:51:40.224Z,11.4
2019-05-25T23:54:11.728Z,10.7
2019-05-25T23:56:43.593Z,10.2
2019-05-25T23:59:15.184Z,10.4
